Time;durP1;ratioP1;P1;durP2;ratioP2;P2;SDS_P1;SDS_P2;PMS_P1;PMS_P2;Temp;Humidity;BMP_temperature;BMP_pressure;BME280_temperature;BME280_humidity;BME280_pressure;Samples;Min_cycle;Max_cycle;Signal;HPM_P1;HPM_P2
2022/01/20 00:02:27;;;;;;;17.65;2.70;;;;;;;7.09;92.01;102209.06;5092130;28;20052;-52
2022/01/20 00:05:09;;;;;;;10.25;1.88;;;;;;;7.07;92.28;102199.38;5091912;28;20060;-52
2022/01/20 00:07:48;;;;;;;19.00;2.65;;;;;;;7.06;92.94;102202.94;5091567;28;20131;-52
2022/01/20 00:27:02;;;;;;;14.77;1.85;;;;;;;7.00;87.41;102226.81;5090914;28;20595;-52
2022/01/20 00:29:42;;;;;;;15.68;2.05;;;;;;;6.90;88.63;102217.34;5090840;28;20056;-52
2022/01/20 00:32:13;;;;;;;15.07;2.00;;;;;;;6.87;89.54;102225.31;5091341;28;20538;-52
2022/01/20 00:37:28;;;;;;;15.18;1.88;;;;;;;6.86;89.70;102205.13;5091605;28;20063;-53
2022/01/20 00:39:58;;;;;;;17.45;1.92;;;;;;;6.83;89.63;102207.81;5090799;28;20503;-55
2022/01/20 00:42:26;;;;;;;15.30;2.38;;;;;;;6.79;89.86;102225.47;5091270;28;20062;-54
2022/01/20 00:44:55;;;;;;;14.18;2.25;;;;;;;6.70;89.45;102234.41;5090857;28;20052;-54
2022/01/20 00:47:24;;;;;;;8.38;1.80;;;;;;;6.66;89.50;102230.09;5091340;28;20404;-54
2022/01/20 00:49:52;;;;;;;14.70;1.92;;;;;;;6.67;88.74;102223.03;5090977;28;20419;-54
2022/01/20 00:52:21;;;;;;;17.98;2.05;;;;;;;6.65;88.91;102220.44;5090595;28;20052;-54
2022/01/20 00:54:49;;;;;;;13.65;2.38;;;;;;;6.57;88.36;102213.56;5090678;28;20531;-54
2022/01/20 00:57:17;;;;;;;17.88;2.72;;;;;;;6.57;87.78;102217.06;5091402;28;20059;-54
2022/01/20 00:59:45;;;;;;;14.45;2.10;;;;;;;6.51;87.39;102230.38;5091554;28;20063;-54
2022/01/20 01:02:14;;;;;;;17.95;2.22;;;;;;;6.48;88.74;102241.81;5090765;28;20052;-54
2022/01/20 01:04:44;;;;;;;11.05;2.05;;;;;;;6.47;88.08;102232.19;5091027;28;20091;-54
2022/01/20 01:09:54;;;;;;;14.73;2.28;;;;;;;6.43;87.96;102235.75;5082600;28;20061;-54
2022/01/20 01:12:31;;;;;;;18.30;2.17;;;;;;;6.44;88.13;102241.91;5076771;28;20492;-54
2022/01/20 01:15:01;;;;;;;13.23;1.98;;;;;;;6.48;88.47;102243.59;5077348;28;20061;-54
2022/01/20 01:20:20;;;;;;;19.38;2.25;;;;;;;6.44;88.25;102236.63;5076646;28;20057;-54
2022/01/20 01:22:48;;;;;;;15.55;1.98;;;;;;;6.38;89.22;102234.97;5077487;28;20059;-54
2022/01/20 01:25:16;;;;;;;26.65;3.97;;;;;;;6.39;89.68;102220.03;5076299;28;20053;-54
2022/01/20 01:27:45;;;;;;;14.52;2.92;;;;;;;6.42;90.01;102233.16;5076825;28;20053;-55
2022/01/20 01:30:36;;;;;;;13.90;1.42;;;;;;;6.39;89.30;102235.84;5076446;28;20135;-54
2022/01/20 01:33:06;;;;;;;14.40;1.52;;;;;;;6.33;90.02;102227.13;5077578;28;20136;-54
2022/01/20 01:35:39;;;;;;;13.80;2.17;;;;;;;6.25;90.47;102218.50;5077561;28;20052;-54
2022/01/20 01:38:36;;;;;;;11.50;2.30;;;;;;;6.38;90.20;102226.22;5076670;28;20083;-55
2022/01/20 01:41:09;;;;;;;13.13;2.20;;;;;;;6.33;89.95;102235.03;5077392;28;20131;-54
2022/01/20 01:43:39;;;;;;;16.63;2.42;;;;;;;6.32;89.52;102243.88;5076795;28;20416;-54
2022/01/20 01:46:08;;;;;;;9.38;1.85;;;;;;;6.33;90.10;102248.22;5076209;28;20140;-54
2022/01/20 01:48:36;;;;;;;20.23;2.53;;;;;;;6.33;90.05;102234.19;5076430;28;20135;-54
2022/01/20 01:51:06;;;;;;;14.43;2.00;;;;;;;6.25;90.67;102236.06;5076076;28;20062;-54
2022/01/20 01:53:34;;;;;;;16.77;2.70;;;;;;;6.22;91.37;102247.56;5075985;28;20057;-54
2022/01/20 01:56:03;;;;;;;13.20;1.73;;;;;;;6.21;91.68;102255.47;5076901;28;20053;-54
2022/01/20 01:58:32;;;;;;;15.00;2.08;;;;;;;6.17;91.74;102246.75;5075878;28;20056;-54
2022/01/20 02:01:00;;;;;;;14.13;2.60;;;;;;;6.15;92.03;102240.63;5075839;28;20139;-54
2022/01/20 02:03:31;;;;;;;11.18;1.63;;;;;;;6.15;92.09;102245.88;5076137;28;20056;-54
2022/01/20 02:06:17;;;;;;;12.45;1.73;;;;;;;6.14;92.68;102249.44;5076304;28;20416;-54
2022/01/20 02:08:56;;;;;;;17.80;3.03;;;;;;;6.20;91.56;102253.72;5075446;28;20052;-55
2022/01/20 02:19:48;;;;;;;13.65;3.00;;;;;;;6.20;91.08;102254.59;5076604;28;20063;-54
2022/01/20 02:22:17;;;;;;;14.02;2.28;;;;;;;6.22;91.35;102257.19;5075668;28;20056;-54
2022/01/20 02:24:45;;;;;;;13.73;2.03;;;;;;;6.22;91.85;102263.38;5075420;28;20053;-54
2022/01/20 02:27:14;;;;;;;12.45;3.08;;;;;;;6.25;91.55;102278.25;5075378;28;20063;-54
2022/01/20 02:29:42;;;;;;;16.13;2.28;;;;;;;6.21;92.47;102282.69;5075610;28;20428;-54
2022/01/20 02:32:11;;;;;;;11.75;2.45;;;;;;;6.22;92.74;102287.09;5075567;28;20059;-54
2022/01/20 02:34:40;;;;;;;10.77;1.45;;;;;;;6.29;92.55;102278.19;5075273;28;20058;-54
2022/01/20 02:37:13;;;;;;;11.25;1.63;;;;;;;6.30;92.88;102271.13;5075411;28;20075;-54
2022/01/20 02:45:17;;;;;;;13.45;2.15;;;;;;;6.37;93.31;102282.44;5075885;28;20059;-54
2022/01/20 02:47:50;;;;;;;17.35;2.22;;;;;;;6.31;93.05;102273.75;5075194;28;20516;-54
2022/01/20 02:50:18;;;;;;;18.85;3.28;;;;;;;6.32;93.09;102275.50;5074643;28;20086;-54
2022/01/20 02:52:48;;;;;;;15.05;2.53;;;;;;;6.32;93.18;102270.22;5075121;28;20052;-54
2022/01/20 02:55:16;;;;;;;9.77;2.00;;;;;;;6.36;93.04;102272.81;5075430;28;20056;-54
2022/01/20 02:57:45;;;;;;;9.40;2.10;;;;;;;6.37;92.75;102282.44;5074756;28;20052;-54
2022/01/20 03:00:15;;;;;;;17.70;2.53;;;;;;;6.33;93.60;102282.50;5074556;28;20066;-52
2022/01/20 03:02:43;;;;;;;16.48;2.03;;;;;;;6.35;92.62;102273.69;5075697;28;20056;-52
2022/01/20 03:05:12;;;;;;;14.50;1.58;;;;;;;6.33;92.93;102279.84;5075155;28;20571;-52
2022/01/20 03:07:40;;;;;;;12.35;1.95;;;;;;;6.27;93.53;102277.34;5074873;28;20082;-52
2022/01/20 03:10:10;;;;;;;15.18;2.53;;;;;;;6.31;93.20;102283.44;5074452;28;20060;-52
2022/01/20 03:12:38;;;;;;;6.72;2.00;;;;;;;6.35;92.67;102286.88;5075117;28;20412;-52
2022/01/20 03:15:07;;;;;;;11.68;2.10;;;;;;;6.40;91.92;102288.53;5075344;28;20053;-52
2022/01/20 03:17:35;;;;;;;10.40;2.00;;;;;;;6.32;91.66;102293.94;5074729;28;20063;-52
2022/01/20 03:20:04;;;;;;;11.48;1.83;;;;;;;6.28;92.62;102291.38;5074601;28;20057;-53
2022/01/20 03:22:32;;;;;;;11.45;1.77;;;;;;;6.15;92.77;102295.94;5074277;28;20057;-54
2022/01/20 03:25:00;;;;;;;23.13;2.22;;;;;;;6.02;93.20;102302.28;5074112;28;20519;-52
2022/01/20 03:27:30;;;;;;;9.15;2.42;;;;;;;5.99;94.48;102303.22;5074252;28;20056;-52
2022/01/20 03:29:58;;;;;;;8.63;1.48;;;;;;;5.97;95.39;102294.47;5075075;28;20420;-52
2022/01/20 03:32:26;;;;;;;12.13;1.70;;;;;;;5.86;95.70;102294.59;5073948;28;20520;-52
2022/01/20 03:34:54;;;;;;;10.10;1.55;;;;;;;5.76;95.77;102285.06;5075370;28;20067;-52
2022/01/20 03:37:23;;;;;;;19.70;1.73;;;;;;;5.69;96.28;102288.69;5074695;28;20056;-52
2022/01/20 03:39:51;;;;;;;14.80;1.88;;;;;;;5.56;97.44;102291.50;5074004;28;20056;-52
2022/01/20 03:42:19;;;;;;;13.95;1.52;;;;;;;5.46;97.69;102287.19;5074077;28;20056;-52
2022/01/20 03:44:49;;;;;;;15.25;2.67;;;;;;;5.36;98.00;102296.09;5074156;28;20504;-52
2022/01/20 03:47:18;;;;;;;10.52;2.13;;;;;;;5.32;96.66;102291.78;5074627;28;20131;-52
2022/01/20 03:49:54;;;;;;;11.60;1.77;;;;;;;5.19;96.04;102289.31;5075150;28;20060;-52
2022/01/20 03:52:23;;;;;;;9.98;1.60;;;;;;;5.09;95.68;102273.63;5073727;28;20064;-52
2022/01/20 03:54:51;;;;;;;8.45;1.60;;;;;;;5.05;95.80;102270.16;5075099;28;20053;-52
2022/01/20 03:57:19;;;;;;;14.68;1.92;;;;;;;5.11;96.21;102264.84;5074248;28;20057;-52
2022/01/20 03:59:49;;;;;;;14.35;2.15;;;;;;;5.16;96.70;102262.13;5073851;28;20500;-52
2022/01/20 04:02:17;;;;;;;10.40;1.83;;;;;;;5.19;97.20;102256.84;5073914;28;20063;-52
2022/01/20 04:04:46;;;;;;;14.82;2.03;;;;;;;5.19;97.52;102263.00;5073692;28;20503;-52
2022/01/20 04:07:14;;;;;;;18.20;2.28;;;;;;;5.17;97.75;102253.34;5074814;28;20057;-52
2022/01/20 04:09:44;;;;;;;14.32;2.33;;;;;;;5.21;98.27;102258.56;5073845;28;20061;-52
2022/01/20 04:12:12;;;;;;;10.38;1.60;;;;;;;5.06;98.11;102261.38;5073767;28;20059;-52
2022/01/20 04:14:47;;;;;;;11.23;1.90;;;;;;;4.98;99.72;102257.97;5073904;28;20056;-52
2022/01/20 04:17:19;;;;;;;13.98;1.67;;;;;;;5.04;97.82;102252.63;5073512;28;20052;-52
2022/01/20 04:19:48;;;;;;;12.93;2.05;;;;;;;5.07;96.64;102249.09;5074137;28;20063;-52
2022/01/20 04:22:16;;;;;;;18.67;1.73;;;;;;;5.02;96.09;102236.00;5074434;28;20060;-52
2022/01/20 04:24:48;;;;;;;11.70;1.23;;;;;;;4.84;96.76;102256.34;5073448;28;20053;-52
2022/01/20 04:27:17;;;;;;;10.60;1.60;;;;;;;4.88;97.33;102248.44;5073686;28;20059;-52
2022/01/20 04:29:45;;;;;;;10.07;1.80;;;;;;;4.67;97.39;102246.88;5073626;28;20071;-52
2022/01/20 04:32:14;;;;;;;20.88;2.60;;;;;;;4.68;97.56;102254.75;5074187;28;20103;-52
2022/01/20 04:34:44;;;;;;;12.80;2.05;;;;;;;4.67;98.07;102250.38;5074441;28;20059;-52
2022/01/20 04:37:14;;;;;;;9.82;1.85;;;;;;;4.65;97.64;102249.53;5074088;28;20067;-52
2022/01/20 04:39:47;;;;;;;9.13;1.50;;;;;;;4.52;98.24;102247.91;5074543;28;20406;-52
2022/01/20 04:42:16;;;;;;;12.27;1.70;;;;;;;4.42;99.05;102253.25;5073861;28;20064;-52
2022/01/20 04:44:49;;;;;;;6.53;1.73;;;;;;;4.39;99.28;102244.53;5074030;28;20052;-52
2022/01/20 04:47:28;;;;;;;12.98;1.95;;;;;;;4.46;98.96;102240.94;5078404;28;20067;-52
2022/01/20 04:58:14;;;;;;;14.80;1.75;;;;;;;4.18;100.00;102263.94;5077089;28;20060;-52
2022/01/20 05:00:43;;;;;;;10.75;1.52;;;;;;;4.06;100.00;102271.03;5077792;28;20067;-52
2022/01/20 05:03:11;;;;;;;13.90;2.28;;;;;;;3.99;100.00;102266.69;5078085;28;20395;-52
2022/01/20 05:05:41;;;;;;;14.80;2.03;;;;;;;4.00;100.00;102263.19;5077429;28;20056;-52
2022/01/20 05:08:09;;;;;;;10.55;1.60;;;;;;;3.96;100.00;102264.09;5077428;28;20052;-52
2022/01/20 05:10:39;;;;;;;17.45;2.40;;;;;;;4.05;100.00;102278.91;5076826;28;20056;-52
2022/01/20 05:13:12;;;;;;;11.32;1.52;;;;;;;4.05;100.00;102287.69;5077076;28;20068;-52
2022/01/20 05:15:40;;;;;;;15.45;2.33;;;;;;;4.11;100.00;102293.78;5076496;28;20053;-52
2022/01/20 05:18:09;;;;;;;11.48;1.40;;;;;;;4.22;100.00;102302.44;5076965;28;20059;-52
2022/01/20 05:20:37;;;;;;;7.72;1.77;;;;;;;4.27;100.00;102305.94;5076572;28;20052;-52
2022/01/20 05:23:07;;;;;;;8.45;1.30;;;;;;;4.38;100.00;102309.31;5076638;28;20059;-52
2022/01/20 05:25:35;;;;;;;10.00;1.50;;;;;;;4.55;100.00;102311.81;5077309;28;20413;-52
2022/01/20 05:28:03;;;;;;;9.75;1.40;;;;;;;4.58;100.00;102303.91;5076493;28;20065;-52
2022/01/20 05:30:32;;;;;;;5.80;1.45;;;;;;;4.66;100.00;102314.38;5076484;28;20075;-52
2022/01/20 05:33:00;;;;;;;14.30;1.70;;;;;;;4.73;99.78;102316.06;5076789;28;20057;-52
2022/01/20 05:35:29;;;;;;;7.50;1.48;;;;;;;4.74;100.00;102323.06;5076183;28;20573;-52
2022/01/20 05:37:57;;;;;;;12.00;2.38;;;;;;;4.79;99.59;102337.03;5076331;28;20058;-52
2022/01/20 05:40:27;;;;;;;15.15;2.50;;;;;;;4.86;99.81;102331.72;5076480;28;20415;-52
2022/01/20 05:42:55;;;;;;;8.63;2.28;;;;;;;4.91;100.00;102329.91;5077662;28;20472;-52
2022/01/20 05:45:24;;;;;;;10.32;1.67;;;;;;;4.97;100.00;102324.59;5075943;28;20067;-52
2022/01/20 05:48:07;;;;;;;14.02;1.45;;;;;;;5.05;99.14;102317.50;5075898;28;20079;-53
2022/01/20 05:50:36;;;;;;;9.02;1.83;;;;;;;4.93;98.94;102322.91;5076759;28;20061;-53
2022/01/20 05:53:05;;;;;;;11.65;1.98;;;;;;;4.83;99.42;102333.47;5076854;28;20053;-52
2022/01/20 05:55:35;;;;;;;9.57;2.08;;;;;;;4.89;98.73;102335.19;5076522;28;20516;-52
2022/01/20 05:58:05;;;;;;;11.38;1.35;;;;;;;4.90;99.20;102357.09;5075819;28;20057;-53
2022/01/20 06:00:34;;;;;;;14.18;1.92;;;;;;;4.97;98.72;102351.75;5075662;28;20074;-52
2022/01/20 06:05:49;;;;;;;8.23;1.13;;;;;;;5.11;97.48;102349.03;5075652;28;20116;-52
2022/01/20 06:08:17;;;;;;;15.77;3.65;;;;;;;5.21;97.01;102358.56;5075764;28;20059;-52
2022/01/20 06:10:47;;;;;;;11.95;1.65;;;;;;;5.34;95.99;102350.53;5075735;28;20067;-53
2022/01/20 06:13:20;;;;;;;7.82;1.30;;;;;;;5.46;94.41;102355.63;5075432;28;20057;-53
2022/01/20 06:15:49;;;;;;;10.05;1.15;;;;;;;5.58;93.51;102357.25;5075687;28;20535;-53
2022/01/20 06:18:17;;;;;;;12.77;1.60;;;;;;;5.59;93.53;102351.97;5075603;28;20055;-52
2022/01/20 06:20:46;;;;;;;12.70;1.38;;;;;;;5.68;92.02;102352.75;5075416;28;20078;-53
2022/01/20 06:23:14;;;;;;;6.10;1.60;;;;;;;5.66;91.93;102362.44;5076591;28;20068;-53
2022/01/20 06:25:43;;;;;;;9.68;1.40;;;;;;;5.57;91.69;102364.28;5075205;28;20053;-53
2022/01/20 06:28:13;;;;;;;9.80;1.50;;;;;;;5.62;90.21;102360.75;5075378;28;20067;-52
2022/01/20 06:30:46;;;;;;;13.38;1.85;;;;;;;5.58;89.95;102371.31;5075917;28;20053;-53
2022/01/20 06:33:15;;;;;;;4.35;1.23;;;;;;;5.61;90.25;102359.00;5075437;28;20066;-53
2022/01/20 06:35:44;;;;;;;11.80;1.60;;;;;;;5.70;90.71;102369.41;5075791;28;20053;-53
2022/01/20 06:38:12;;;;;;;13.15;2.55;;;;;;;5.74;91.38;102374.63;5075092;28;20061;-53
2022/01/20 06:40:41;;;;;;;8.90;1.52;;;;;;;5.83;91.57;102381.53;5075103;28;20056;-53
2022/01/20 06:43:09;;;;;;;12.57;1.55;;;;;;;5.86;92.22;102391.19;5075062;28;20090;-53
2022/01/20 06:45:39;;;;;;;12.73;1.80;;;;;;;5.89;92.97;102399.91;5075391;28;20064;-53
2022/01/20 06:48:07;;;;;;;14.18;1.73;;;;;;;5.90;93.08;102387.59;5076045;28;20056;-53
2022/01/20 06:50:36;;;;;;;17.52;2.20;;;;;;;5.94;92.09;102392.81;5074840;28;20068;-53
2022/01/20 06:53:04;;;;;;;10.77;2.50;;;;;;;5.90;92.89;102388.50;5075784;28;20459;-53
2022/01/20 06:55:34;;;;;;;14.55;2.00;;;;;;;5.87;93.05;102392.94;5074979;28;20518;-53
2022/01/20 06:58:02;;;;;;;10.38;1.67;;;;;;;5.98;91.91;102390.19;5074677;28;20071;-53
2022/01/20 07:00:31;;;;;;;9.25;1.95;;;;;;;5.95;92.24;102397.22;5074573;28;20056;-53
2022/01/20 07:03:00;;;;;;;12.65;1.40;;;;;;;6.00;92.18;102391.03;5074527;28;20058;-53
2022/01/20 07:05:29;;;;;;;17.45;2.03;;;;;;;6.11;89.85;102403.16;5074300;28;20401;-53
2022/01/20 07:07:57;;;;;;;13.45;1.75;;;;;;;6.04;90.20;102395.38;5074075;28;20052;-53
2022/01/20 07:10:25;;;;;;;17.65;2.22;;;;;;;5.92;91.04;102386.69;5074796;28;20064;-53
2022/01/20 07:12:53;;;;;;;13.63;2.90;;;;;;;5.84;91.74;102398.22;5075344;28;20056;-53
2022/01/20 07:15:22;;;;;;;14.43;1.52;;;;;;;5.73;92.35;102407.13;5075109;28;20053;-53
2022/01/20 07:17:50;;;;;;;10.57;1.73;;;;;;;5.72;92.11;102405.38;5074653;28;20534;-53
2022/01/20 07:20:20;;;;;;;10.38;1.58;;;;;;;5.61;92.75;102411.66;5074652;28;20057;-53
2022/01/20 07:22:49;;;;;;;13.45;1.50;;;;;;;5.56;92.85;102417.84;5074567;28;20458;-53
2022/01/20 07:25:17;;;;;;;17.40;2.20;;;;;;;5.48;91.98;102422.31;5074806;28;20052;-53
2022/01/20 07:27:45;;;;;;;17.50;1.92;;;;;;;5.48;91.99;102417.06;5074626;28;20057;-53
2022/01/20 07:30:33;;;;;;;9.80;1.85;;;;;;;5.13;91.25;102378.81;5074277;28;20101;-53
2022/01/20 07:33:03;;;;;;;14.60;1.70;;;;;;;5.28;90.04;102419.00;5074740;28;20060;-53
2022/01/20 07:35:36;;;;;;;18.38;1.80;;;;;;;5.19;89.25;102420.84;5073946;28;20056;-53
2022/01/20 07:38:05;;;;;;;18.65;2.42;;;;;;;5.19;89.26;102415.59;5074120;28;20052;-52
2022/01/20 07:40:34;;;;;;;10.77;1.83;;;;;;;5.06;89.17;102424.47;5074517;28;20052;-53
2022/01/20 07:43:02;;;;;;;12.00;2.08;;;;;;;4.90;89.58;102428.13;5073985;28;20059;-52
2022/01/20 07:45:31;;;;;;;16.67;2.20;;;;;;;4.79;90.29;102436.97;5074957;28;20053;-53
2022/01/20 07:47:59;;;;;;;12.23;2.00;;;;;;;4.68;90.45;102437.91;5074386;28;20049;-53
2022/01/20 07:50:27;;;;;;;11.57;1.55;;;;;;;4.64;89.87;102408.16;5074360;28;20078;-52
2022/01/20 07:52:57;;;;;;;10.50;1.52;;;;;;;4.76;89.57;102436.97;5074580;28;20064;-52
2022/01/20 07:55:25;;;;;;;18.95;2.20;;;;;;;4.78;89.14;102419.44;5074894;28;20076;-53
2022/01/20 07:57:53;;;;;;;18.52;2.55;;;;;;;4.77;88.62;102425.56;5074017;28;20498;-53
2022/01/20 08:00:22;;;;;;;13.82;2.20;;;;;;;4.59;89.32;102412.53;5074555;28;20083;-53
2022/01/20 08:02:50;;;;;;;19.10;2.83;;;;;;;4.50;90.70;102417.88;5074615;28;20056;-53
2022/01/20 08:05:19;;;;;;;14.43;2.15;;;;;;;4.57;91.50;102419.56;5074450;28;20114;-53
2022/01/20 08:07:48;;;;;;;8.88;1.52;;;;;;;4.79;90.79;102436.97;5074140;28;20059;-53
2022/01/20 08:10:17;;;;;;;13.45;2.13;;;;;;;5.01;88.50;102442.06;5074079;28;20062;-53
2022/01/20 08:12:46;;;;;;;12.65;2.40;;;;;;;5.20;87.59;102437.50;5073790;28;20090;-53
2022/01/20 08:15:15;;;;;;;17.92;2.45;;;;;;;5.29;85.56;102437.41;5073535;28;20057;-53
2022/01/20 08:17:44;;;;;;;12.52;2.20;;;;;;;5.45;84.92;102429.38;5073627;28;20135;-53
2022/01/20 08:20:13;;;;;;;17.65;2.17;;;;;;;5.61;84.09;102443.25;5075545;28;20512;-53
2022/01/20 08:22:41;;;;;;;18.67;2.20;;;;;;;5.72;82.35;102429.06;5077641;28;20066;-53
2022/01/20 08:25:11;;;;;;;9.07;1.70;;;;;;;5.86;81.31;102439.44;5078860;28;20135;-53
2022/01/20 08:27:42;;;;;;;10.35;1.88;;;;;;;5.98;80.35;102448.13;5077630;28;20058;-53
2022/01/20 08:30:12;;;;;;;10.02;1.77;;;;;;;6.06;80.70;102446.28;5077268;28;20052;-53
2022/01/20 08:32:41;;;;;;;12.10;2.13;;;;;;;6.17;80.82;102454.94;5078702;28;20056;-53
2022/01/20 08:35:10;;;;;;;11.05;1.70;;;;;;;6.17;80.83;102444.41;5077206;28;20063;-53
2022/01/20 08:37:40;;;;;;;18.15;4.10;;;;;;;6.27;80.39;102448.66;5077393;28;20400;-53
2022/01/20 08:40:12;;;;;;;18.38;2.88;;;;;;;6.22;80.73;102453.09;5078540;28;20053;-53
2022/01/20 08:42:42;;;;;;;15.57;3.08;;;;;;;6.22;80.93;102447.84;5077756;28;20056;-53
2022/01/20 08:45:13;;;;;;;13.35;2.33;;;;;;;6.26;80.99;102453.94;5077031;28;20056;-53
2022/01/20 08:47:42;;;;;;;10.65;1.90;;;;;;;6.28;82.50;102458.28;5077021;28;20067;-53
2022/01/20 08:50:12;;;;;;;24.80;2.50;;;;;;;6.36;82.74;102457.34;5077427;28;20063;-53
2022/01/20 08:52:46;;;;;;;10.27;1.55;;;;;;;6.45;83.34;102455.41;5078323;28;20438;-53
2022/01/20 08:55:16;;;;;;;15.45;2.38;;;;;;;6.57;83.32;102453.50;5077551;28;20052;-53
2022/01/20 08:57:46;;;;;;;15.65;2.00;;;;;;;6.66;83.82;102451.63;5078122;28;20416;-53
2022/01/20 09:00:16;;;;;;;13.15;2.13;;;;;;;6.91;82.66;102460.91;5078175;28;20106;-53
2022/01/20 09:02:44;;;;;;;14.35;2.10;;;;;;;7.03;81.53;102452.81;5076907;28;20055;-53
2022/01/20 09:05:14;;;;;;;16.35;2.30;;;;;;;7.09;80.39;102442.13;5076597;28;20060;-53
2022/01/20 09:07:43;;;;;;;21.05;1.83;;;;;;;7.36;79.14;102471.59;5077678;28;20052;-53
2022/01/20 09:10:18;;;;;;;11.35;1.98;;;;;;;7.38;78.97;102465.41;5076806;28;20053;-53
2022/01/20 09:15:34;;;;;;;16.38;2.53;;;;;;;7.46;77.45;102472.31;5077263;28;20059;-53
2022/01/20 09:18:04;;;;;;;14.85;2.08;;;;;;;7.42;76.93;102475.00;5076646;28;20057;-53
2022/01/20 09:20:34;;;;;;;14.63;2.63;;;;;;;7.23;78.43;102484.16;5076410;28;20052;-53
2022/01/20 09:23:03;;;;;;;11.65;1.70;;;;;;;7.22;78.79;102495.59;5076518;28;20523;-53
2022/01/20 09:25:31;;;;;;;16.10;2.83;;;;;;;7.21;78.05;102500.03;5077166;28;20059;-53
2022/01/20 09:28:01;;;;;;;9.90;2.13;;;;;;;7.09;78.64;102496.69;5076450;28;20053;-53
2022/01/20 09:30:30;;;;;;;13.82;1.75;;;;;;;7.11;77.18;102492.25;5075914;28;20052;-53
2022/01/20 09:33:10;;;;;;;11.65;1.85;;;;;;;7.21;77.00;102493.84;5076705;28;20064;-53
2022/01/20 09:35:40;;;;;;;14.88;2.03;;;;;;;7.25;77.15;102503.47;5076076;28;20538;-53
2022/01/20 09:38:09;;;;;;;12.98;2.15;;;;;;;7.36;75.53;102512.09;5076310;28;20055;-53
2022/01/20 09:40:42;;;;;;;12.82;2.10;;;;;;;7.47;75.50;102517.19;5077157;28;20088;-53
2022/01/20 09:43:14;;;;;;;14.13;2.83;;;;;;;7.62;73.07;102516.06;5076186;28;20099;-53
2022/01/20 09:45:43;;;;;;;16.77;2.10;;;;;;;7.66;73.06;102512.44;5077376;28;20056;-53
2022/01/20 09:48:12;;;;;;;12.95;2.25;;;;;;;7.84;71.96;102513.88;5076172;28;20053;-53
2022/01/20 09:50:40;;;;;;;14.38;2.45;;;;;;;7.93;69.68;102520.75;5077317;28;20056;-53
2022/01/20 09:53:08;;;;;;;14.07;1.63;;;;;;;8.09;68.08;102514.28;5076434;28;20087;-53
2022/01/20 09:55:37;;;;;;;11.52;1.95;;;;;;;8.42;65.22;102525.06;5075856;28;20056;-53
2022/01/20 09:58:05;;;;;;;10.80;2.33;;;;;;;8.61;64.13;102516.78;5076089;28;20063;-53
2022/01/20 10:00:35;;;;;;;9.32;2.05;;;;;;;8.82;62.85;102526.03;5075998;28;20056;-53
2022/01/20 10:03:06;;;;;;;9.25;1.88;;;;;;;8.85;62.59;102518.88;5076191;28;20456;-53
2022/01/20 10:05:37;;;;;;;17.00;1.60;;;;;;;9.22;61.97;102518.00;5075904;28;20090;-53
2022/01/20 10:08:08;;;;;;;10.85;1.75;;;;;;;10.11;59.51;102512.16;5075944;28;20056;-53
2022/01/20 10:10:41;;;;;;;12.40;1.95;;;;;;;10.07;57.54;102517.56;5075826;28;20057;-53
2022/01/20 10:13:10;;;;;;;20.17;1.90;;;;;;;9.48;59.37;102508.53;5076161;28;20060;-53
2022/01/20 10:15:41;;;;;;;12.18;2.33;;;;;;;9.62;60.38;102517.00;5075699;28;20064;-53
2022/01/20 10:18:11;;;;;;;7.30;1.88;;;;;;;10.66;56.86;102517.66;5075773;28;20409;-54
2022/01/20 10:20:52;;;;;;;15.00;2.70;;;;;;;10.87;56.84;102520.56;5076191;28;20056;-54
2022/01/20 10:23:31;;;;;;;12.63;2.08;;;;;;;11.99;54.93;102521.28;5076034;28;20057;-54
2022/01/20 10:26:20;;;;;;;12.77;2.30;;;;;;;13.32;50.96;102523.22;5075941;28;20061;-54
2022/01/20 10:28:54;;;;;;;14.15;2.15;;;;;;;13.51;51.43;102522.44;5073467;28;20087;-54
2022/01/20 10:31:36;;;;;;;9.10;2.05;;;;;;;12.85;51.80;102536.66;5075085;28;20056;-54
2022/01/20 10:34:06;;;;;;;9.85;1.83;;;;;;;12.38;53.34;102528.69;5075034;28;20057;-54
2022/01/20 10:36:39;;;;;;;15.10;2.05;;;;;;;11.66;55.38;102532.13;5075220;28;20496;-54
2022/01/20 10:39:08;;;;;;;19.48;3.63;;;;;;;11.09;57.79;102534.00;5074948;28;20067;-53
2022/01/20 10:41:38;;;;;;;15.20;2.92;;;;;;;10.73;58.42;102537.78;5075002;28;20059;-53
2022/01/20 10:44:09;;;;;;;17.08;2.47;;;;;;;10.31;60.96;102543.41;5074700;28;20411;-53
2022/01/20 10:46:47;;;;;;;16.20;2.95;;;;;;;9.99;62.32;102547.81;5076169;28;20056;-53
2022/01/20 10:49:16;;;;;;;14.18;1.55;;;;;;;9.80;61.18;102542.16;5074756;28;20135;-53
2022/01/20 10:51:56;;;;;;;19.02;2.53;;;;;;;9.67;62.51;102546.91;5074917;28;20621;-53
2022/01/20 10:54:24;;;;;;;12.43;1.90;;;;;;;9.70;61.90;102550.38;5074613;28;20056;-53
2022/01/20 10:56:54;;;;;;;13.48;1.83;;;;;;;9.79;59.96;102540.41;5074793;28;20053;-53
2022/01/20 10:59:23;;;;;;;12.18;1.75;;;;;;;9.43;61.66;102550.16;5075259;28;20056;-53
2022/01/20 11:02:06;;;;;;;6.82;1.48;;;;;;;12.00;54.91;102557.56;5075528;28;20411;-54
2022/01/20 11:04:36;;;;;;;11.68;1.80;;;;;;;15.02;47.85;102555.69;5075516;28;20068;-54
2022/01/20 11:07:07;;;;;;;11.40;1.83;;;;;;;17.35;40.86;102565.69;5074415;28;20496;-54
2022/01/20 11:09:43;;;;;;;8.45;2.00;;;;;;;17.03;39.88;102557.69;5075220;28;20118;-54
2022/01/20 11:12:12;;;;;;;11.30;1.77;;;;;;;15.67;42.39;102569.41;5075047;28;20075;-54
2022/01/20 11:14:43;;;;;;;9.30;1.80;;;;;;;13.94;45.69;102558.78;5075716;28;20313;-54
2022/01/20 11:17:20;;;;;;;6.88;1.77;;;;;;;12.34;51.16;102569.63;5074231;28;20053;-54
2022/01/20 11:19:49;;;;;;;13.32;2.45;;;;;;;11.52;54.28;102568.03;5075633;28;20060;-54
2022/01/20 11:22:19;;;;;;;9.13;2.00;;;;;;;10.97;57.17;102569.78;5074426;28;20063;-54
2022/01/20 11:24:58;;;;;;;11.25;2.55;;;;;;;10.64;58.61;102571.69;5074376;28;20060;-54
2022/01/20 11:27:36;;;;;;;11.82;2.35;;;;;;;10.46;60.27;102573.13;5075440;28;20121;-54
2022/01/20 11:30:15;;;;;;;13.40;1.83;;;;;;;10.28;61.37;102570.00;5075121;28;20063;-54
2022/01/20 11:32:46;;;;;;;18.20;2.05;;;;;;;10.05;62.38;102568.00;5075339;28;20060;-54
2022/01/20 11:35:18;;;;;;;13.43;1.92;;;;;;;10.02;62.15;102579.56;5074754;28;20127;-53
2022/01/20 11:37:55;;;;;;;;;;;;;;;9.88;63.42;102565.78;5074418;28;20052;-54
2022/01/20 11:40:24;;;;;;;13.30;2.13;;;;;;;9.92;63.81;102571.88;5074197;28;20256;-54
2022/01/20 11:42:58;;;;;;;6.40;1.48;;;;;;;12.73;55.13;102579.75;5074015;28;20052;-54
2022/01/20 11:45:28;;;;;;;10.65;1.70;;;;;;;15.74;45.49;102575.31;5073773;28;20060;-54
2022/01/20 11:47:58;;;;;;;17.15;2.58;;;;;;;18.61;37.87;102575.09;5074133;28;20500;-54
2022/01/20 11:50:26;;;;;;;9.20;2.33;;;;;;;21.15;33.31;102571.19;5074092;28;20059;-54
2022/01/20 11:52:54;;;;;;;10.10;2.13;;;;;;;22.68;30.67;102562.06;5074349;28;20111;-54
2022/01/20 11:55:30;;;;;;;13.05;2.00;;;;;;;24.31;28.12;102559.13;5073744;28;20056;-54
2022/01/20 11:57:58;;;;;;;8.13;2.10;;;;;;;24.73;26.50;102553.59;5073582;28;20067;-54
2022/01/20 12:00:29;;;;;;;10.63;2.25;;;;;;;21.47;29.81;102571.47;5073632;28;20053;-53
2022/01/20 12:03:10;;;;;;;10.70;1.95;;;;;;;19.07;34.26;102561.41;5073607;28;20056;-53
2022/01/20 12:05:38;;;;;;;12.23;2.08;;;;;;;19.14;35.36;102557.34;5073535;28;20099;-53
2022/01/20 12:08:10;;;;;;;11.82;2.22;;;;;;;17.95;37.24;102555.91;5074146;28;20473;-53
2022/01/20 12:10:41;;;;;;;9.20;2.33;;;;;;;16.75;39.75;102558.34;5073586;28;20067;-53
2022/01/20 12:13:11;;;;;;;15.57;2.45;;;;;;;15.11;42.55;102565.91;5074088;28;20061;-53
2022/01/20 12:15:50;;;;;;;7.28;2.10;;;;;;;13.74;46.27;102559.66;5074866;28;20094;-53
2022/01/20 12:18:19;;;;;;;17.77;2.42;;;;;;;12.88;48.68;102552.50;5074005;28;20064;-53
2022/01/20 12:20:48;;;;;;;12.10;1.83;;;;;;;12.66;49.88;102556.91;5074158;28;20057;-53
2022/01/20 12:23:17;;;;;;;9.90;2.03;;;;;;;12.90;50.16;102565.78;5073743;28;20052;-53
2022/01/20 12:25:46;;;;;;;15.18;2.08;;;;;;;15.15;44.94;102559.50;5073387;28;20063;-53
2022/01/20 12:28:17;;;;;;;7.82;1.90;;;;;;;15.90;42.15;102560.22;5074762;28;20053;-53
2022/01/20 12:30:48;;;;;;;8.40;1.90;;;;;;;15.43;42.69;102571.47;5073619;28;20053;-53
2022/01/20 12:33:23;;;;;;;13.82;2.55;;;;;;;14.15;45.34;102568.59;5074793;28;20057;-53